createdAt,value
2018-02-12T00:01:01.411Z,65.64
2018-02-12T00:03:29.807Z,64.52
2018-02-12T00:05:58.246Z,65.86
2018-02-12T00:08:26.628Z,64.01
2018-02-12T00:10:55.038Z,65.94
2018-02-12T00:13:23.444Z,66.39
2018-02-12T00:15:51.902Z,64.83
2018-02-12T00:18:20.399Z,66.28
2018-02-12T00:20:48.803Z,66.73
2018-02-12T00:23:17.179Z,68.90
2018-02-12T00:25:45.585Z,68.87
2018-02-12T00:28:14.126Z,69.06
2018-02-12T00:30:42.605Z,66.16
2018-02-12T00:33:11.006Z,66.56
2018-02-12T00:35:39.431Z,64.75
2018-02-12T00:38:07.899Z,66.45
2018-02-12T00:40:36.295Z,66.21
2018-02-12T00:43:04.703Z,66.57
2018-02-12T00:45:33.094Z,65.81
2018-02-12T00:48:01.482Z,66.06
2018-02-12T00:50:30.267Z,66.69
2018-02-12T00:52:58.654Z,66.58
2018-02-12T00:55:27.051Z,63.58
2018-02-12T00:57:55.466Z,63.78
2018-02-12T01:00:23.862Z,65.21
2018-02-12T01:02:52.296Z,65.32
2018-02-12T01:05:20.688Z,65.63
2018-02-12T01:07:49.130Z,65.79
2018-02-12T01:10:17.546Z,66.54
2018-02-12T01:12:46.028Z,65.18
2018-02-12T01:15:14.445Z,64.46
2018-02-12T01:17:42.826Z,63.96
2018-02-12T01:20:11.231Z,64.92
2018-02-12T01:22:39.645Z,63.45
2018-02-12T01:25:08.130Z,65.17
2018-02-12T01:27:36.553Z,66.08
2018-02-12T01:30:04.959Z,65.87
2018-02-12T01:32:33.391Z,65.58
2018-02-12T01:35:01.858Z,66.59
2018-02-12T01:37:30.319Z,64.55
2018-02-12T01:39:58.718Z,66.26
2018-02-12T01:42:27.197Z,63.81
2018-02-12T01:44:55.925Z,64.10
2018-02-12T01:47:24.331Z,64.24
2018-02-12T01:50:04.286Z,63.83
2018-02-12T01:52:32.698Z,67.80
2018-02-12T01:55:01.095Z,68.02
2018-02-12T01:57:29.570Z,66.76
2018-02-12T01:59:57.982Z,67.16
2018-02-12T02:02:26.401Z,66.14
2018-02-12T02:04:54.802Z,67.13
2018-02-12T02:07:23.223Z,69.40
2018-02-12T02:09:51.765Z,69.58
2018-02-12T02:12:20.173Z,67.94
2018-02-12T02:14:48.577Z,67.83
2018-02-12T02:17:17.088Z,67.26
2018-02-12T02:19:45.549Z,66.50
2018-02-12T02:22:14.052Z,66.13
2018-02-12T02:24:42.507Z,66.93
2018-02-12T02:27:10.916Z,66.95
2018-02-12T02:29:39.298Z,66.86
2018-02-12T02:32:07.745Z,66.60
2018-02-12T02:34:36.260Z,66.35
2018-02-12T02:37:04.651Z,66.05
2018-02-12T02:39:33.087Z,67.37
2018-02-12T02:42:01.634Z,68.74
2018-02-12T02:44:30.026Z,67.08
2018-02-12T02:46:58.426Z,64.19
2018-02-12T02:49:26.823Z,64.62
2018-02-12T02:51:55.239Z,65.78
2018-02-12T02:54:23.765Z,64.86
2018-02-12T02:56:52.242Z,65.06
2018-02-12T02:59:20.635Z,65.58
2018-02-12T03:01:49.041Z,67.24
2018-02-12T03:04:17.448Z,64.44
2018-02-12T03:06:45.907Z,66.01
2018-02-12T03:09:14.303Z,65.18
2018-02-12T03:11:43.196Z,65.29
2018-02-12T03:14:11.593Z,65.04
2018-02-12T03:16:39.999Z,65.67
2018-02-12T03:19:08.387Z,65.95
2018-02-12T03:21:36.784Z,68.61
2018-02-12T03:24:05.242Z,67.14
2018-02-12T03:26:34.580Z,66.69
2018-02-12T03:29:03.170Z,64.08
2018-02-12T03:31:31.564Z,63.72
2018-02-12T03:33:59.963Z,67.10
2018-02-12T03:36:28.762Z,68.73
2018-02-12T03:38:57.155Z,68.66
2018-02-12T03:41:25.544Z,67.88
2018-02-12T03:43:53.933Z,68.48
2018-02-12T03:46:22.397Z,67.25
2018-02-12T03:48:50.793Z,66.69
2018-02-12T03:51:19.272Z,65.15
2018-02-12T03:53:47.648Z,64.58
2018-02-12T03:56:16.052Z,66.63
2018-02-12T03:58:44.572Z,65.98
2018-02-12T04:01:13.043Z,66.74
2018-02-12T04:03:41.533Z,64.06
2018-02-12T04:06:09.925Z,66.25
2018-02-12T04:08:38.305Z,65.30
2018-02-12T04:11:06.698Z,64.04
2018-02-12T04:13:35.181Z,63.69
2018-02-12T04:16:03.587Z,63.98
2018-02-12T04:18:31.975Z,65.46
2018-02-12T04:21:00.373Z,62.00
2018-02-12T04:23:28.822Z,62.28
2018-02-12T04:25:57.213Z,63.88
2018-02-12T04:28:25.607Z,63.76
2018-02-12T04:30:54.086Z,64.81
2018-02-12T04:33:22.466Z,66.75
2018-02-12T04:35:50.910Z,68.00
2018-02-12T04:38:19.302Z,63.31
2018-02-12T04:40:47.714Z,61.38
2018-02-12T04:43:16.111Z,62.22
2018-02-12T04:45:44.574Z,61.19
2018-02-12T04:48:12.988Z,61.42
2018-02-12T04:50:41.558Z,64.18
2018-02-12T04:53:10.016Z,66.66
2018-02-12T04:55:38.410Z,66.00
2018-02-12T04:58:06.790Z,63.93
2018-02-12T05:00:35.178Z,63.83
2018-02-12T05:03:03.636Z,63.39
2018-02-12T05:05:32.047Z,62.18
2018-02-12T05:08:00.540Z,62.06
2018-02-12T05:10:28.942Z,62.78
2018-02-12T05:12:57.342Z,63.08
2018-02-12T05:15:25.729Z,64.62
2018-02-12T05:17:54.161Z,61.30
2018-02-12T05:20:22.614Z,62.20
2018-02-12T05:22:51.010Z,63.54
2018-02-12T05:25:19.399Z,64.96
2018-02-12T05:27:47.857Z,63.26
2018-02-12T05:30:16.253Z,65.06
2018-02-12T05:32:44.729Z,64.05
2018-02-12T05:35:13.107Z,63.58
2018-02-12T05:37:41.595Z,64.08
2018-02-12T05:40:10.003Z,65.97
2018-02-12T05:42:38.490Z,63.60
2018-02-12T05:45:06.942Z,63.61
2018-02-12T05:47:35.329Z,65.69
2018-02-12T05:50:03.719Z,63.38
2018-02-12T05:52:32.102Z,63.34
2018-02-12T05:55:00.506Z,65.04
2018-02-12T05:57:28.995Z,65.07
2018-02-12T05:59:57.394Z,64.06
2018-02-12T06:02:25.786Z,65.78
2018-02-12T06:04:54.496Z,63.95
2018-02-12T06:07:22.890Z,65.35
2018-02-12T06:09:51.371Z,65.98
2018-02-12T06:12:19.780Z,64.44
2018-02-12T06:14:48.187Z,65.11
2018-02-12T06:17:16.582Z,65.22
2018-02-12T06:19:45.067Z,64.72
2018-02-12T06:22:13.534Z,64.37
2018-02-12T06:24:41.939Z,64.70
2018-02-12T06:27:10.326Z,62.39
2018-02-12T06:29:38.734Z,62.86
2018-02-12T06:32:07.218Z,64.25
2018-02-12T06:34:35.619Z,65.75
2018-02-12T06:37:04.028Z,63.69
2018-02-12T06:39:32.437Z,65.02
2018-02-12T06:42:00.846Z,65.28
2018-02-12T06:44:29.321Z,63.47
2018-02-12T06:46:57.740Z,61.95
2018-02-12T06:49:27.158Z,63.32
2018-02-12T06:51:55.558Z,65.27
2018-02-12T06:54:23.955Z,67.16
2018-02-12T06:56:53.338Z,65.82
2018-02-12T06:59:21.733Z,65.58
2018-02-12T07:01:50.207Z,65.86
2018-02-12T07:04:18.607Z,65.59
2018-02-12T07:06:47.087Z,65.07
2018-02-12T07:09:15.470Z,62.47
2018-02-12T07:11:43.885Z,64.24
2018-02-12T07:14:12.432Z,67.12
2018-02-12T07:16:40.988Z,66.27
2018-02-12T07:19:09.445Z,64.36
2018-02-12T07:21:38.834Z,65.41
2018-02-12T07:24:07.236Z,67.41
2018-02-12T07:26:35.673Z,67.87
2018-02-12T07:29:04.088Z,66.19
2018-02-12T07:31:32.579Z,64.02
2018-02-12T07:34:00.981Z,67.95
2018-02-12T07:36:29.416Z,68.26
2018-02-12T07:38:57.863Z,65.47
2018-02-12T07:41:26.255Z,64.21
2018-02-12T07:43:54.717Z,64.20
2018-02-12T07:46:23.136Z,66.75
2018-02-12T07:48:51.539Z,64.77
2018-02-12T07:51:20.069Z,61.62
2018-02-12T07:53:48.475Z,66.75
2018-02-12T07:56:16.932Z,65.02
2018-02-12T07:58:45.394Z,61.28
2018-02-12T08:01:13.908Z,64.31
2018-02-12T08:03:42.381Z,65.17
2018-02-12T08:06:10.783Z,62.87
2018-02-12T08:08:39.184Z,65.34
2018-02-12T08:11:07.572Z,65.67
2018-02-12T08:13:36.041Z,61.79
2018-02-12T08:16:04.454Z,61.89
2018-02-12T08:18:32.896Z,63.06
2018-02-12T08:21:01.291Z,62.07
2018-02-12T08:23:29.748Z,61.89
2018-02-12T08:25:58.208Z,58.51
2018-02-12T08:28:26.604Z,60.82
2018-02-12T08:30:55.086Z,58.30
2018-02-12T08:33:23.496Z,59.88
2018-02-12T08:35:51.906Z,59.92
2018-02-12T08:38:20.328Z,59.66
2018-02-12T08:40:48.823Z,58.30
2018-02-12T08:43:17.290Z,59.14
2018-02-12T08:45:45.677Z,60.26
2018-02-12T08:48:14.104Z,59.06
2018-02-12T08:50:42.538Z,62.61
2018-02-12T08:53:10.942Z,61.72
2018-02-12T08:55:39.411Z,56.48
2018-02-12T08:58:07.890Z,57.75
2018-02-12T09:00:36.272Z,55.18
2018-02-12T09:03:04.783Z,55.60
2018-02-12T09:05:33.188Z,57.78
2018-02-12T09:08:01.654Z,57.69
2018-02-12T09:10:30.041Z,56.64
2018-02-12T09:12:58.428Z,58.49
2018-02-12T09:15:26.835Z,63.02
2018-02-12T09:17:55.266Z,63.28
2018-02-12T09:20:23.772Z,64.44
2018-02-12T09:22:52.173Z,62.97
2018-02-12T09:25:20.582Z,60.56
2018-02-12T09:27:48.996Z,60.40
2018-02-12T09:30:17.407Z,62.97
2018-02-12T09:32:45.961Z,61.88
2018-02-12T09:35:14.372Z,62.93
2018-02-12T09:37:42.795Z,60.05
2018-02-12T09:40:11.203Z,57.29
2018-02-12T09:42:39.615Z,58.64
2018-02-12T09:45:08.182Z,58.38
2018-02-12T09:47:36.664Z,58.26
2018-02-12T09:50:05.095Z,58.03
2018-02-12T09:52:33.494Z,58.78
2018-02-12T09:55:01.899Z,56.30
2018-02-12T09:57:30.353Z,54.92
2018-02-12T09:59:58.753Z,55.09
2018-02-12T10:02:27.149Z,54.85
2018-02-12T10:04:55.564Z,51.92
2018-02-12T10:07:29.509Z,53.61
2018-02-12T10:09:57.940Z,60.91
2018-02-12T10:12:26.366Z,60.20
2018-02-12T10:14:54.828Z,62.98
2018-02-12T10:17:23.248Z,63.72
2018-02-12T10:19:51.649Z,62.57
2018-02-12T10:22:20.072Z,62.17
2018-02-12T10:24:48.498Z,63.31
2018-02-12T10:27:16.996Z,63.92
2018-02-12T10:29:45.428Z,63.97
2018-02-12T10:32:13.848Z,62.23
2018-02-12T10:34:42.297Z,61.53
2018-02-12T10:37:10.670Z,61.84
2018-02-12T10:39:39.126Z,60.74
2018-02-12T10:42:07.531Z,59.48
2018-02-12T10:44:35.941Z,58.25
2018-02-12T10:47:04.330Z,59.49
2018-02-12T10:49:32.706Z,58.87
2018-02-12T10:52:01.186Z,59.42
2018-02-12T10:54:29.598Z,57.57
2018-02-12T10:56:58.004Z,59.07
2018-02-12T10:59:26.401Z,63.79
2018-02-12T11:01:54.802Z,61.66
2018-02-12T11:04:23.336Z,60.96
2018-02-12T11:06:51.730Z,59.40
2018-02-12T11:09:20.121Z,61.65
2018-02-12T11:11:48.510Z,61.25
2018-02-12T11:14:16.928Z,60.39
2018-02-12T11:16:45.369Z,60.06
2018-02-12T11:19:13.813Z,60.33
2018-02-12T11:21:42.279Z,58.55
2018-02-12T11:24:10.688Z,60.17
2018-02-12T11:26:39.087Z,59.02
2018-02-12T11:29:07.546Z,57.02
2018-02-12T11:31:35.928Z,56.65
2018-02-12T11:34:04.327Z,55.93
2018-02-12T11:36:32.759Z,55.47
2018-02-12T11:39:01.221Z,56.85
2018-02-12T11:41:29.631Z,59.28
2018-02-12T11:43:58.062Z,59.96
2018-02-12T11:46:26.546Z,58.49
2018-02-12T11:48:55.003Z,56.45
2018-02-12T11:51:23.460Z,57.49
2018-02-12T11:53:51.869Z,55.84
2018-02-12T11:56:20.285Z,53.44
2018-02-12T11:58:48.683Z,56.88
2018-02-12T12:01:17.104Z,56.85
2018-02-12T12:03:45.579Z,54.87
2018-02-12T12:06:14.214Z,53.62
2018-02-12T12:08:42.715Z,51.75
2018-02-12T12:11:11.122Z,54.57
2018-02-12T12:13:39.544Z,56.55
2018-02-12T12:16:07.994Z,61.79
2018-02-12T12:18:36.411Z,61.16
2018-02-12T12:21:04.815Z,64.66
2018-02-12T12:23:33.215Z,60.40
2018-02-12T12:26:01.625Z,56.18
2018-02-12T12:28:30.102Z,54.54
2018-02-12T12:30:58.528Z,55.99
2018-02-12T12:33:26.932Z,55.30
2018-02-12T12:35:55.340Z,53.43
2018-02-12T12:38:23.798Z,52.27
2018-02-12T12:40:52.251Z,55.00
2018-02-12T12:43:20.653Z,51.72
2018-02-12T12:45:49.103Z,50.13
2018-02-12T12:48:17.532Z,48.49
2018-02-12T12:50:45.998Z,45.91
2018-02-12T12:53:14.413Z,42.34
2018-02-12T12:55:42.906Z,44.00
2018-02-12T12:58:11.322Z,42.75
2018-02-12T13:00:39.785Z,41.93
2018-02-12T13:03:08.251Z,40.75
2018-02-12T13:05:36.840Z,45.37
2018-02-12T13:08:05.302Z,46.68
2018-02-12T13:10:33.779Z,50.11
2018-02-12T13:13:02.209Z,52.74
2018-02-12T13:15:30.684Z,50.49
2018-02-12T13:17:59.070Z,51.50
2018-02-12T13:20:27.538Z,50.05
2018-02-12T13:22:55.950Z,50.88
2018-02-12T13:25:24.362Z,52.05
2018-02-12T13:27:52.762Z,51.05
2018-02-12T13:30:21.162Z,51.40
2018-02-12T13:32:49.623Z,51.09
2018-02-12T13:35:18.027Z,49.02
2018-02-12T13:37:46.445Z,50.04
2018-02-12T13:40:14.856Z,47.95
2018-02-12T13:42:43.273Z,48.79
2018-02-12T13:45:11.767Z,46.04
2018-02-12T13:47:40.192Z,46.01
2018-02-12T13:50:08.592Z,46.91
2018-02-12T13:52:37.006Z,48.70
2018-02-12T13:55:05.638Z,49.22
2018-02-12T13:57:34.415Z,50.73
2018-02-12T14:00:02.843Z,50.66
2018-02-12T14:02:32.223Z,50.48
2018-02-12T14:05:01.608Z,49.69
2018-02-12T14:07:29.997Z,49.23
2018-02-12T14:09:58.458Z,49.93
2018-02-12T14:12:26.912Z,51.16
2018-02-12T14:14:55.372Z,50.75
2018-02-12T14:17:23.799Z,51.24
2018-02-12T14:19:52.307Z,51.69
2018-02-12T14:22:20.747Z,52.53
2018-02-12T14:24:49.180Z,54.25
2018-02-12T14:27:17.774Z,54.17
2018-02-12T14:29:46.190Z,52.47
2018-02-12T14:32:14.731Z,54.45
2018-02-12T14:34:43.142Z,55.55
2018-02-12T14:37:11.542Z,55.42
2018-02-12T14:39:40.090Z,55.95
2018-02-12T14:42:08.494Z,57.11
2018-02-12T14:44:36.914Z,56.49
2018-02-12T14:47:05.339Z,56.51
2018-02-12T14:49:35.334Z,57.03
2018-02-12T14:52:03.831Z,55.70
2018-02-12T14:54:32.260Z,54.62
2018-02-12T14:57:00.709Z,54.83
2018-02-12T14:59:29.108Z,55.59
2018-02-12T15:01:57.486Z,54.31
2018-02-12T15:04:25.954Z,53.58
2018-02-12T15:06:54.357Z,53.46
2018-02-12T15:09:22.830Z,54.35
2018-02-12T15:11:51.246Z,54.15
2018-02-12T15:14:19.640Z,54.05
2018-02-12T15:16:48.056Z,53.82
2018-02-12T15:19:16.456Z,57.35
2018-02-12T15:21:45.059Z,53.91
2018-02-12T15:24:13.450Z,55.77
2018-02-12T15:26:41.927Z,54.13
2018-02-12T15:29:10.318Z,57.83
2018-02-12T15:31:38.713Z,58.12
2018-02-12T15:34:07.184Z,56.83
2018-02-12T15:36:35.576Z,55.88
2018-02-12T15:39:04.063Z,56.68
2018-02-12T15:41:32.506Z,56.44
2018-02-12T15:44:00.901Z,54.68
2018-02-12T15:46:29.379Z,56.48
2018-02-12T15:48:59.510Z,55.52
2018-02-12T15:51:27.919Z,54.50
2018-02-12T15:53:56.353Z,55.80
2018-02-12T15:56:24.754Z,58.83
2018-02-12T15:58:53.242Z,57.04
2018-02-12T16:01:21.632Z,54.05
2018-02-12T16:03:50.041Z,56.03
2018-02-12T16:06:18.436Z,54.72
2018-02-12T16:08:47.817Z,55.01
2018-02-12T16:11:16.307Z,54.47
2018-02-12T16:13:44.790Z,54.74
2018-02-12T16:16:13.189Z,56.77
2018-02-12T16:18:41.785Z,56.12
2018-02-12T16:21:10.185Z,53.88
2018-02-12T16:23:38.748Z,53.52
2018-02-12T16:26:07.134Z,54.11
2018-02-12T16:28:35.592Z,56.50
2018-02-12T16:31:04.020Z,55.43
2018-02-12T16:33:32.452Z,56.50
2018-02-12T16:36:01.289Z,56.70
2018-02-12T16:38:29.802Z,53.93
2018-02-12T16:40:58.322Z,57.97
2018-02-12T16:43:26.713Z,56.72
2018-02-12T16:45:55.124Z,56.60
2018-02-12T16:48:23.580Z,56.29
2018-02-12T16:50:51.987Z,58.05
2018-02-12T16:53:20.492Z,57.80
2018-02-12T16:55:48.911Z,58.44
2018-02-12T16:58:17.315Z,58.67
2018-02-12T17:00:46.019Z,57.43
2018-02-12T17:03:14.438Z,58.90
2018-02-12T17:05:42.836Z,57.76
2018-02-12T17:08:11.215Z,58.78
2018-02-12T17:10:39.609Z,59.59
2018-02-12T17:13:08.089Z,57.17
2018-02-12T17:15:36.501Z,57.41
2018-02-12T17:18:04.922Z,58.32
2018-02-12T17:20:33.461Z,60.05
2018-02-12T17:23:01.832Z,57.54
2018-02-12T17:25:30.379Z,59.62
2018-02-12T17:27:58.795Z,56.77
2018-02-12T17:30:27.301Z,60.26
2018-02-12T17:32:55.714Z,60.65
2018-02-12T17:35:24.203Z,59.78
2018-02-12T17:37:52.681Z,57.32
2018-02-12T17:40:21.115Z,58.35
2018-02-12T17:42:49.530Z,58.64
2018-02-12T17:45:17.922Z,58.48
2018-02-12T17:47:46.333Z,60.83
2018-02-12T17:50:14.891Z,62.06
2018-02-12T17:52:43.323Z,61.70
2018-02-12T17:55:11.721Z,60.62
2018-02-12T17:57:40.152Z,63.21
2018-02-12T18:00:08.543Z,63.08
2018-02-12T18:02:37.036Z,63.62
2018-02-12T18:05:05.577Z,64.25
2018-02-12T18:07:33.986Z,62.52
2018-02-12T18:10:02.377Z,61.23
2018-02-12T18:12:30.781Z,60.28
2018-02-12T18:14:59.276Z,61.85
2018-02-12T18:17:27.752Z,64.32
2018-02-12T18:19:56.186Z,64.04
2018-02-12T18:22:24.583Z,63.98
2018-02-12T18:24:53.045Z,65.59
2018-02-12T18:27:21.530Z,64.36
2018-02-12T18:29:49.944Z,64.25
2018-02-12T18:32:18.361Z,62.54
2018-02-12T18:34:46.761Z,62.04
2018-02-12T18:37:15.409Z,65.25
2018-02-12T18:39:44.081Z,60.73
2018-02-12T18:42:12.493Z,65.34
2018-02-12T18:44:41.006Z,61.29
2018-02-12T18:47:09.438Z,63.71
2018-02-12T18:49:37.857Z,62.22
2018-02-12T18:52:06.307Z,62.93
2018-02-12T18:54:34.716Z,61.60
2018-02-12T18:57:03.209Z,62.03
2018-02-12T18:59:31.617Z,64.17
2018-02-12T19:02:00.100Z,64.17
2018-02-12T19:04:28.597Z,60.81
2018-02-12T19:06:57.036Z,58.58
2018-02-12T19:09:25.461Z,59.61
2018-02-12T19:11:53.888Z,61.66
2018-02-12T19:14:22.370Z,64.07
2018-02-12T19:16:50.830Z,65.27
2018-02-12T19:19:19.232Z,66.15
2018-02-12T19:21:47.656Z,65.32
2018-02-12T19:24:16.128Z,67.57
2018-02-12T19:26:44.554Z,62.10
2018-02-12T19:29:13.323Z,61.41
2018-02-12T19:31:41.751Z,63.36
2018-02-12T19:34:10.158Z,62.40
2018-02-12T19:36:38.564Z,61.71
2018-02-12T19:39:07.005Z,63.64
2018-02-12T19:41:35.791Z,63.14
2018-02-12T19:44:04.273Z,62.87
2018-02-12T19:46:32.715Z,65.44
2018-02-12T19:49:01.186Z,64.76
2018-02-12T19:51:29.643Z,64.28
2018-02-12T19:53:58.640Z,62.52
2018-02-12T19:56:27.140Z,60.26
2018-02-12T19:58:55.537Z,64.24
2018-02-12T20:01:23.967Z,61.96
2018-02-12T20:03:52.399Z,64.12
2018-02-12T20:06:20.902Z,61.31
2018-02-12T20:08:49.340Z,61.17
2018-02-12T20:11:17.744Z,60.54
2018-02-12T20:13:46.164Z,64.65
2018-02-12T20:16:14.547Z,60.72
2018-02-12T20:18:43.031Z,60.79
2018-02-12T20:21:11.422Z,63.71
2018-02-12T20:23:39.832Z,63.09
2018-02-12T20:26:08.252Z,61.58
2018-02-12T20:28:36.677Z,63.16
2018-02-12T20:31:05.249Z,63.63
2018-02-12T20:33:33.661Z,63.36
2018-02-12T20:36:02.072Z,63.23
2018-02-12T20:38:30.474Z,65.34
2018-02-12T20:40:58.878Z,64.49
2018-02-12T20:43:27.288Z,62.51
2018-02-12T20:45:55.697Z,62.98
2018-02-12T20:48:24.576Z,66.18
2018-02-12T20:50:52.977Z,64.81
2018-02-12T20:53:21.385Z,65.57
2018-02-12T20:55:49.875Z,62.74
2018-02-12T20:58:19.172Z,62.74
2018-02-12T21:00:47.633Z,63.87
2018-02-12T21:03:16.145Z,64.25
2018-02-12T21:05:44.618Z,60.54
2018-02-12T21:08:13.009Z,62.66
2018-02-12T21:10:41.406Z,60.32
2018-02-12T21:13:09.875Z,60.38
2018-02-12T21:15:38.291Z,62.44
2018-02-12T21:18:07.764Z,64.60
2018-02-12T21:20:36.459Z,62.97
2018-02-12T21:23:05.163Z,62.84
2018-02-12T21:25:33.921Z,63.33
2018-02-12T21:28:02.508Z,62.54
2018-02-12T21:30:31.107Z,64.96
2018-02-12T21:32:59.742Z,63.57
2018-02-12T21:35:28.237Z,61.30
2018-02-12T21:37:59.607Z,63.79
2018-02-12T21:40:28.004Z,61.69
2018-02-12T21:42:56.456Z,65.00
2018-02-12T21:45:24.860Z,61.73
2018-02-12T21:47:53.346Z,60.36
2018-02-12T21:50:22.391Z,58.64
2018-02-12T21:52:50.946Z,63.13
2018-02-12T21:55:19.329Z,62.05
2018-02-12T21:57:47.734Z,63.52
2018-02-12T22:00:16.189Z,61.26
2018-02-12T22:02:44.640Z,60.74
2018-02-12T22:05:13.151Z,60.86
2018-02-12T22:07:41.629Z,59.29
2018-02-12T22:10:10.038Z,60.13
2018-02-12T22:12:38.587Z,59.12
2018-02-12T22:15:06.982Z,59.61
2018-02-12T22:17:35.396Z,59.38
2018-02-12T22:20:03.798Z,59.24
2018-02-12T22:22:32.237Z,60.11
2018-02-12T22:25:00.815Z,64.67
2018-02-12T22:27:29.305Z,60.94
2018-02-12T22:29:57.701Z,62.80
2018-02-12T22:32:26.104Z,60.18
2018-02-12T22:34:54.527Z,59.02
2018-02-12T22:37:22.990Z,60.35
2018-02-12T22:39:51.392Z,60.05
2018-02-12T22:42:19.801Z,61.46
2018-02-12T22:44:48.207Z,59.90
2018-02-12T22:47:16.610Z,61.24
2018-02-12T22:49:45.119Z,60.78
2018-02-12T22:52:13.598Z,57.77
2018-02-12T22:54:41.998Z,58.91
2018-02-12T22:57:10.389Z,59.44
2018-02-12T22:59:38.955Z,58.68
2018-02-12T23:04:42.096Z,60.66
2018-02-12T23:07:10.570Z,60.97
2018-02-12T23:09:38.965Z,58.61
2018-02-12T23:12:07.360Z,56.24
2018-02-12T23:14:37.994Z,57.99
2018-02-12T23:17:11.936Z,56.65
2018-02-12T23:19:40.417Z,58.44
2018-02-12T23:22:08.840Z,60.19
2018-02-12T23:24:37.628Z,59.54
2018-02-12T23:27:06.049Z,60.05
2018-02-12T23:29:34.562Z,58.52
2018-02-12T23:32:02.946Z,61.05
2018-02-12T23:34:31.355Z,58.87
2018-02-12T23:36:59.970Z,59.30
2018-02-12T23:39:28.463Z,57.47
2018-02-12T23:41:56.871Z,58.11
2018-02-12T23:44:25.273Z,58.75
2018-02-12T23:46:53.658Z,59.19
2018-02-12T23:49:22.122Z,58.47
2018-02-12T23:51:50.525Z,59.86
2018-02-12T23:54:24.913Z,57.99
2018-02-12T23:56:53.332Z,56.65
2018-02-12T23:59:21.736Z,58.16
